Time;durP1;ratioP1;P1;durP2;ratioP2;P2;SDS_P1;SDS_P2;PMS_P1;PMS_P2;Temp;Humidity;BMP_temperature;BMP_pressure;BME280_temperature;BME280_humidity;BME280_pressure;Samples;Min_cycle;Max_cycle;Signal;HPM_P1;HPM_P2
2023/04/29 00:01:58;;;;;;;17.85;9.23;;;;;;;;;;4992495;28;20038;-77
2023/04/29 00:04:25;;;;;;;26.77;12.40;;;;;;;;;;4992729;28;20023;-77
2023/04/29 00:06:51;;;;;;;17.70;9.00;;;;;;;;;;4992753;28;20030;-77
2023/04/29 00:09:17;;;;;;;18.55;10.15;;;;;;;;;;4992908;28;20022;-77
2023/04/29 00:11:43;;;;;;;21.65;9.23;;;;;;;;;;4998094;28;20096;-77
2023/04/29 00:17:12;;;;;;;20.08;8.52;;;;;;;;;;4994118;28;20444;-77
2023/04/29 00:19:38;;;;;;;21.88;9.23;;;;;;;;;;4992931;28;20026;-77
2023/04/29 00:22:04;;;;;;;20.15;10.40;;;;;;;;;;4992698;28;20037;-77
2023/04/29 00:24:30;;;;;;;19.83;10.48;;;;;;;;;;4992354;28;20031;-77
2023/04/29 00:26:56;;;;;;;18.88;8.75;;;;;;;;;;4992618;28;20032;-77
2023/04/29 00:29:22;;;;;;;19.10;8.88;;;;;;;;;;4992577;28;20037;-77
2023/04/29 00:31:49;;;;;;;21.02;10.05;;;;;;;;;;4992434;28;20030;-77
2023/04/29 00:34:15;;;;;;;23.48;10.20;;;;;;;;;;4992229;28;20101;-77
2023/04/29 00:36:41;;;;;;;12.27;6.60;;;;;;;;;;4992461;28;20026;-77
2023/04/29 00:39:07;;;;;;;14.25;6.78;;;;;;;;;;4992483;28;20026;-78
2023/04/29 00:41:34;;;;;;;24.88;9.98;;;;;;;;;;4992618;28;20035;-78
2023/04/29 00:44:00;;;;;;;19.35;9.50;;;;;;;;;;4992269;28;20031;-77
2023/04/29 00:46:26;;;;;;;25.38;10.40;;;;;;;;;;4994504;28;20491;-77
2023/04/29 00:48:52;;;;;;;18.27;10.10;;;;;;;;;;5015460;28;20034;-77
2023/04/29 00:51:18;;;;;;;19.00;9.95;;;;;;;;;;5015240;28;20030;-78
2023/04/29 00:53:44;;;;;;;22.27;11.93;;;;;;;;;;5015549;28;20038;-77
2023/04/29 00:56:29;;;;;;;25.08;11.80;;;;;;;;;;5015325;28;20034;-77
2023/04/29 00:58:56;;;;;;;28.35;12.13;;;;;;;;;;4997190;28;20509;-78
2023/04/29 01:01:23;;;;;;;20.40;11.20;;;;;;;;;;4997207;28;20026;-77
2023/04/29 01:03:49;;;;;;;23.90;12.13;;;;;;;;;;4999687;28;20133;-78
2023/04/29 01:06:23;;;;;;;23.17;11.38;;;;;;;;;;5015198;28;20025;-78
2023/04/29 01:08:56;;;;;;;23.25;11.63;;;;;;;;;;5015174;28;20033;-77
2023/04/29 01:11:24;;;;;;;24.67;11.55;;;;;;;;;;5014758;28;20018;-78
2023/04/29 01:13:51;;;;;;;22.48;11.15;;;;;;;;;;5015064;28;20061;-78
2023/04/29 01:16:23;;;;;;;16.60;9.75;;;;;;;;;;5014825;28;20021;-78
2023/04/29 01:18:53;;;;;;;23.25;9.82;;;;;;;;;;5014941;28;20033;-78
2023/04/29 01:21:20;;;;;;;17.87;9.83;;;;;;;;;;5015106;28;20088;-78
2023/04/29 01:23:46;;;;;;;17.85;8.02;;;;;;;;;;5014961;28;20037;-78
2023/04/29 01:26:12;;;;;;;20.02;10.70;;;;;;;;;;5014697;28;20112;-78
2023/04/29 01:28:41;;;;;;;22.90;10.52;;;;;;;;;;5015091;28;20022;-78
2023/04/29 01:31:17;;;;;;;22.92;10.98;;;;;;;;;;5014598;28;20053;-78
2023/04/29 01:33:53;;;;;;;19.58;10.13;;;;;;;;;;5015087;28;20464;-78
2023/04/29 01:36:34;;;;;;;23.30;11.20;;;;;;;;;;4998909;28;20069;-78
2023/04/29 01:39:30;;;;;;;17.05;8.70;;;;;;;;;;4998259;28;20029;-77
2023/04/29 01:41:57;;;;;;;21.10;11.13;;;;;;;;;;4998285;28;20040;-78
2023/04/29 01:44:25;;;;;;;21.67;10.40;;;;;;;;;;4998280;28;20077;-77
2023/04/29 01:46:52;;;;;;;15.07;8.70;;;;;;;;;;4998113;28;20033;-77
2023/04/29 01:49:27;;;;;;;18.35;8.85;;;;;;;;;;4997920;28;20033;-77
2023/04/29 01:51:53;;;;;;;21.80;11.65;;;;;;;;;;4998235;28;20425;-77
2023/04/29 01:54:21;;;;;;;27.88;12.27;;;;;;;;;;4998027;28;20076;-77
2023/04/29 01:56:47;;;;;;;20.75;10.88;;;;;;;;;;4997819;28;20026;-78
2023/04/29 01:59:13;;;;;;;26.83;12.52;;;;;;;;;;4997287;28;20026;-78
2023/04/29 02:01:39;;;;;;;22.88;10.40;;;;;;;;;;4997773;28;20034;-77
2023/04/29 02:04:05;;;;;;;23.25;10.30;;;;;;;;;;5013023;28;20109;-78
2023/04/29 02:06:32;;;;;;;25.95;12.13;;;;;;;;;;5017386;28;20026;-78
2023/04/29 02:08:58;;;;;;;22.77;11.15;;;;;;;;;;5017561;28;20380;-78
2023/04/29 02:11:24;;;;;;;23.27;11.10;;;;;;;;;;5017488;28;20460;-78
2023/04/29 02:13:50;;;;;;;17.10;7.80;;;;;;;;;;5017094;28;20033;-78
2023/04/29 02:16:16;;;;;;;19.65;10.10;;;;;;;;;;5017554;28;20025;-78
2023/04/29 02:18:43;;;;;;;23.65;10.55;;;;;;;;;;5016725;28;20025;-77
2023/04/29 02:21:09;;;;;;;21.75;9.02;;;;;;;;;;5017249;28;20084;-78
2023/04/29 02:23:35;;;;;;;14.85;8.45;;;;;;;;;;5016953;28;20059;-77
2023/04/29 02:26:04;;;;;;;19.50;9.57;;;;;;;;;;5017155;28;20025;-77
2023/04/29 02:28:30;;;;;;;25.17;11.48;;;;;;;;;;5017038;28;20025;-77
2023/04/29 02:30:56;;;;;;;26.02;11.18;;;;;;;;;;5017056;28;20029;-77
2023/04/29 02:33:22;;;;;;;14.88;8.52;;;;;;;;;;5016660;28;20124;-78
2023/04/29 02:35:48;;;;;;;22.77;11.75;;;;;;;;;;5012948;28;20056;-78
2023/04/29 02:38:14;;;;;;;23.00;8.43;;;;;;;;;;5013530;28;20437;-77
2023/04/29 02:40:44;;;;;;;20.50;10.77;;;;;;;;;;5013500;28;20030;-78
2023/04/29 02:43:10;;;;;;;15.60;7.63;;;;;;;;;;5013565;28;20096;-77
2023/04/29 02:45:37;;;;;;;26.50;11.75;;;;;;;;;;5013458;28;20034;-78
2023/04/29 02:48:03;;;;;;;23.30;10.10;;;;;;;;;;5013011;28;20368;-78
2023/04/29 02:50:29;;;;;;;20.40;8.98;;;;;;;;;;5013365;28;20092;-78
2023/04/29 02:53:05;;;;;;;17.50;8.50;;;;;;;;;;5013392;28;20024;-78
2023/04/29 02:55:31;;;;;;;14.70;6.97;;;;;;;;;;5013639;28;20034;-78
2023/04/29 02:57:57;;;;;;;20.48;9.07;;;;;;;;;;5013470;28;20026;-77
2023/04/29 03:00:24;;;;;;;21.27;10.80;;;;;;;;;;5013318;28;20033;-77
2023/04/29 03:02:50;;;;;;;20.90;8.93;;;;;;;;;;5012938;28;20369;-78
2023/04/29 03:05:16;;;;;;;21.45;8.80;;;;;;;;;;5013115;28;20460;-78
2023/04/29 03:07:43;;;;;;;13.43;5.65;;;;;;;;;;5013090;28;20140;-78
2023/04/29 03:10:09;;;;;;;21.02;9.25;;;;;;;;;;5012410;28;20025;-77
2023/04/29 03:12:42;;;;;;;17.27;8.70;;;;;;;;;;5013044;28;20018;-78
2023/04/29 03:15:09;;;;;;;21.25;9.85;;;;;;;;;;5013167;28;20064;-78
2023/04/29 03:17:35;;;;;;;11.15;4.68;;;;;;;;;;5012956;28;20029;-78
2023/04/29 03:20:01;;;;;;;17.48;8.38;;;;;;;;;;5013010;28;20026;-77
2023/04/29 03:22:27;;;;;;;17.30;8.35;;;;;;;;;;5012747;28;20034;-77
2023/04/29 03:24:53;;;;;;;20.65;7.03;;;;;;;;;;5012720;28;20361;-77
2023/04/29 03:27:19;;;;;;;17.25;6.93;;;;;;;;;;5012864;28;20444;-78
2023/04/29 03:29:45;;;;;;;15.25;7.22;;;;;;;;;;5013145;28;20457;-77
2023/04/29 03:32:11;;;;;;;14.68;8.45;;;;;;;;;;5012827;28;20037;-78
2023/04/29 03:34:37;;;;;;;17.42;7.25;;;;;;;;;;5014169;28;20050;-78
2023/04/29 03:37:03;;;;;;;17.38;8.27;;;;;;;;;;5015839;28;20025;-78
2023/04/29 03:39:31;;;;;;;11.15;6.80;;;;;;;;;;5015883;28;20112;-78
2023/04/29 03:41:58;;;;;;;13.60;6.75;;;;;;;;;;5016203;28;20037;-78
2023/04/29 03:44:24;;;;;;;18.08;8.90;;;;;;;;;;5016038;28;20352;-77
2023/04/29 03:46:50;;;;;;;14.90;6.88;;;;;;;;;;5016129;28;20021;-78
2023/04/29 03:49:16;;;;;;;14.20;6.25;;;;;;;;;;5015840;28;20025;-78
2023/04/29 03:51:46;;;;;;;19.95;7.65;;;;;;;;;;5015857;28;20034;-78
2023/04/29 03:54:12;;;;;;;8.52;4.93;;;;;;;;;;5015788;28;20030;-77
2023/04/29 03:56:39;;;;;;;9.25;3.58;;;;;;;;;;5016033;28;20026;-78
2023/04/29 03:59:06;;;;;;;9.80;4.43;;;;;;;;;;5015906;28;20111;-77
2023/04/29 04:01:32;;;;;;;11.52;4.93;;;;;;;;;;5015842;28;20038;-78
2023/04/29 04:03:58;;;;;;;13.75;7.28;;;;;;;;;;5007198;28;20416;-78
2023/04/29 04:06:24;;;;;;;10.85;5.45;;;;;;;;;;4996295;28;20065;-78
2023/04/29 04:08:50;;;;;;;12.93;5.68;;;;;;;;;;4995974;28;20026;-78
2023/04/29 04:11:16;;;;;;;9.25;4.60;;;;;;;;;;4996169;28;20084;-78
2023/04/29 04:13:42;;;;;;;11.40;5.30;;;;;;;;;;4996212;28;20026;-78
2023/04/29 04:16:11;;;;;;;9.60;5.20;;;;;;;;;;4995855;28;20695;-77
2023/04/29 04:18:37;;;;;;;9.50;5.30;;;;;;;;;;4996147;28;20026;-77
2023/04/29 04:21:10;;;;;;;16.50;6.05;;;;;;;;;;4997614;28;20034;-78
2023/04/29 04:23:39;;;;;;;12.02;5.80;;;;;;;;;;5000000;28;20033;-78
2023/04/29 04:26:05;;;;;;;11.23;5.60;;;;;;;;;;5000100;28;20364;-78
2023/04/29 04:28:31;;;;;;;14.85;5.45;;;;;;;;;;4999699;28;20026;-77
2023/04/29 04:30:57;;;;;;;5.88;3.63;;;;;;;;;;4999605;28;20026;-77
2023/04/29 04:33:23;;;;;;;16.55;5.95;;;;;;;;;;4999215;28;20022;-77
2023/04/29 04:36:05;;;;;;;11.10;5.47;;;;;;;;;;4995695;28;20138;-78
2023/04/29 04:38:50;;;;;;;8.52;4.45;;;;;;;;;;5006862;28;20084;-78
2023/04/29 04:41:16;;;;;;;17.38;6.40;;;;;;;;;;5015491;28;20036;-78
2023/04/29 04:43:55;;;;;;;12.77;6.25;;;;;;;;;;5015616;28;20033;-78
2023/04/29 04:46:21;;;;;;;10.93;4.45;;;;;;;;;;5015705;28;20545;-77
2023/04/29 04:48:47;;;;;;;12.93;6.05;;;;;;;;;;5015565;28;20441;-78
2023/04/29 04:51:13;;;;;;;11.93;6.22;;;;;;;;;;5015284;28;20046;-78
2023/04/29 04:53:43;;;;;;;11.38;5.03;;;;;;;;;;4996046;28;20527;-78
2023/04/29 04:56:09;;;;;;;12.88;5.03;;;;;;;;;;4995897;28;20058;-78
2023/04/29 04:58:35;;;;;;;12.55;5.68;;;;;;;;;;5012071;28;20066;-78
2023/04/29 05:01:01;;;;;;;12.73;6.30;;;;;;;;;;5015473;28;20038;-78
2023/04/29 05:03:30;;;;;;;12.82;5.57;;;;;;;;;;5015334;28;20033;-78
2023/04/29 05:05:57;;;;;;;12.95;5.43;;;;;;;;;;5015383;28;20046;-78
2023/04/29 05:08:23;;;;;;;12.77;6.13;;;;;;;;;;5015188;28;20034;-78
2023/04/29 05:10:49;;;;;;;14.10;5.43;;;;;;;;;;5015237;28;20025;-78
2023/04/29 05:13:15;;;;;;;11.82;6.43;;;;;;;;;;5015098;28;20472;-78
2023/04/29 05:15:41;;;;;;;11.18;6.20;;;;;;;;;;5014805;28;20504;-78
2023/04/29 05:18:08;;;;;;;13.55;6.57;;;;;;;;;;5014975;28;20061;-78
2023/04/29 05:20:34;;;;;;;17.85;6.72;;;;;;;;;;5015167;28;20428;-78
2023/04/29 05:23:08;;;;;;;17.05;7.63;;;;;;;;;;5014799;28;20039;-78
2023/04/29 05:25:35;;;;;;;13.98;6.65;;;;;;;;;;5014950;28;20122;-78
2023/04/29 05:28:03;;;;;;;15.82;6.63;;;;;;;;;;5014747;28;20108;-78
2023/04/29 05:30:30;;;;;;;12.65;5.75;;;;;;;;;;5014320;28;20053;-78
2023/04/29 05:32:57;;;;;;;12.85;6.20;;;;;;;;;;5014145;28;20022;-78
2023/04/29 05:35:24;;;;;;;17.27;5.57;;;;;;;;;;5014334;28;20054;-78
2023/04/29 05:37:50;;;;;;;13.32;5.05;;;;;;;;;;5014932;28;20025;-78
2023/04/29 05:40:16;;;;;;;14.77;6.35;;;;;;;;;;5014643;28;20054;-78
2023/04/29 05:42:42;;;;;;;11.90;4.88;;;;;;;;;;5014544;28;20042;-78
2023/04/29 05:45:08;;;;;;;12.27;4.78;;;;;;;;;;5014741;28;20096;-78
2023/04/29 05:47:35;;;;;;;11.60;4.82;;;;;;;;;;5014589;28;20022;-78
2023/04/29 05:50:01;;;;;;;11.18;4.22;;;;;;;;;;5014545;28;20447;-78
2023/04/29 05:52:27;;;;;;;6.53;3.15;;;;;;;;;;5014919;28;20492;-78
2023/04/29 05:54:53;;;;;;;11.38;3.45;;;;;;;;;;5015161;28;20121;-78
2023/04/29 05:57:18;;;;;;;8.73;3.47;;;;;;;;;;5014554;28;20381;-78
2023/04/29 05:59:45;;;;;;;8.35;2.63;;;;;;;;;;5014170;28;20030;-79
2023/04/29 06:02:11;;;;;;;4.93;2.45;;;;;;;;;;5015137;28;20045;-78
2023/04/29 06:04:38;;;;;;;9.90;3.72;;;;;;;;;;5015110;28;20033;-79
2023/04/29 06:07:04;;;;;;;7.40;2.65;;;;;;;;;;5015080;28;20461;-79
2023/04/29 06:09:30;;;;;;;6.72;2.85;;;;;;;;;;4999406;28;20484;-79
2023/04/29 06:11:56;;;;;;;8.25;2.75;;;;;;;;;;4995343;28;20037;-78
2023/04/29 06:14:22;;;;;;;8.15;3.67;;;;;;;;;;5014853;28;20040;-79
2023/04/29 06:16:48;;;;;;;8.68;3.05;;;;;;;;;;5014403;28;20026;-78
2023/04/29 06:19:48;;;;;;;6.07;3.08;;;;;;;;;;5014303;28;20026;-79
2023/04/29 06:22:14;;;;;;;10.20;3.08;;;;;;;;;;5014452;28;20042;-78
2023/04/29 06:24:42;;;;;;;4.03;1.88;;;;;;;;;;5013988;28;20128;-79
2023/04/29 06:27:08;;;;;;;9.73;3.00;;;;;;;;;;5014227;28;20024;-79
2023/04/29 06:29:34;;;;;;;5.25;2.40;;;;;;;;;;5014996;28;20018;-79
2023/04/29 06:32:00;;;;;;;8.40;1.52;;;;;;;;;;5017021;28;20025;-79
2023/04/29 06:34:26;;;;;;;7.40;3.03;;;;;;;;;;5034641;28;20455;-79
2023/04/29 06:36:52;;;;;;;9.70;2.90;;;;;;;;;;5034439;28;20041;-79
2023/04/29 06:39:18;;;;;;;5.30;2.95;;;;;;;;;;5034597;28;20112;-79
2023/04/29 06:41:44;;;;;;;8.80;3.13;;;;;;;;;;5030098;28;20160;-78
2023/04/29 06:44:10;;;;;;;3.92;2.90;;;;;;;;;;4999589;28;20484;-79
2023/04/29 06:46:38;;;;;;;6.38;2.78;;;;;;;;;;5014710;28;20033;-79
2023/04/29 06:49:05;;;;;;;4.75;2.88;;;;;;;;;;5014518;28;20388;-79
2023/04/29 06:51:37;;;;;;;11.00;3.05;;;;;;;;;;5014728;28;20045;-79
2023/04/29 06:54:04;;;;;;;5.75;2.53;;;;;;;;;;5015026;28;20034;-79
2023/04/29 06:56:30;;;;;;;5.40;2.78;;;;;;;;;;5014826;28;20026;-79
2023/04/29 06:58:55;;;;;;;8.63;2.95;;;;;;;;;;5015137;28;20079;-80
2023/04/29 07:01:22;;;;;;;9.07;3.80;;;;;;;;;;5014745;28;20084;-79
2023/04/29 07:03:48;;;;;;;10.73;3.50;;;;;;;;;;5017005;28;20026;-80
2023/04/29 07:06:14;;;;;;;7.43;3.03;;;;;;;;;;4998247;28;20030;-80
2023/04/29 07:08:40;;;;;;;6.40;2.75;;;;;;;;;;4997917;28;20096;-78
2023/04/29 07:11:06;;;;;;;4.63;2.50;;;;;;;;;;4997374;28;20438;-79
2023/04/29 07:13:52;;;;;;;7.60;2.30;;;;;;;;;;4994513;28;20026;-79
2023/04/29 07:16:20;;;;;;;4.90;3.17;;;;;;;;;;5002084;28;20032;-79
2023/04/29 07:18:46;;;;;;;4.57;2.97;;;;;;;;;;5013956;28;20117;-79
2023/04/29 07:21:12;;;;;;;5.80;2.88;;;;;;;;;;5013660;28;20041;-79
2023/04/29 07:23:38;;;;;;;8.57;3.25;;;;;;;;;;5013849;28;20117;-79
2023/04/29 07:26:15;;;;;;;9.77;2.50;;;;;;;;;;5013337;28;20034;-79
2023/04/29 07:28:41;;;;;;;5.57;2.90;;;;;;;;;;5013370;28;20026;-79
2023/04/29 07:31:07;;;;;;;4.85;3.47;;;;;;;;;;5005686;28;20032;-79
2023/04/29 07:33:34;;;;;;;7.85;4.30;;;;;;;;;;4993896;28;20022;-79
2023/04/29 07:36:01;;;;;;;9.65;4.00;;;;;;;;;;5005567;28;20576;-79
2023/04/29 07:38:28;;;;;;;10.13;3.72;;;;;;;;;;5013819;28;20033;-79
2023/04/29 07:40:55;;;;;;;6.03;2.60;;;;;;;;;;5014306;28;20436;-79
2023/04/29 07:43:21;;;;;;;8.60;3.72;;;;;;;;;;5012384;28;20089;-79
2023/04/29 07:45:47;;;;;;;9.63;3.97;;;;;;;;;;5012589;28;20076;-78
2023/04/29 07:48:13;;;;;;;4.75;3.28;;;;;;;;;;5012421;28;20037;-78
2023/04/29 07:50:39;;;;;;;11.70;3.70;;;;;;;;;;5012483;28;20455;-78
2023/04/29 07:53:05;;;;;;;5.60;4.00;;;;;;;;;;5014361;28;20022;-78
2023/04/29 07:55:31;;;;;;;6.45;3.88;;;;;;;;;;5015282;28;20117;-78
2023/04/29 07:57:58;;;;;;;6.88;3.88;;;;;;;;;;5017400;28;20483;-79
2023/04/29 08:00:26;;;;;;;5.93;2.83;;;;;;;;;;5016714;28;20025;-79
2023/04/29 08:02:53;;;;;;;8.77;4.30;;;;;;;;;;5016784;28;20025;-78
2023/04/29 08:05:22;;;;;;;7.82;3.45;;;;;;;;;;5016130;28;20108;-79
2023/04/29 08:07:48;;;;;;;8.13;4.50;;;;;;;;;;5016299;28;20022;-78
2023/04/29 08:10:15;;;;;;;8.60;4.68;;;;;;;;;;5016958;28;20021;-79
2023/04/29 08:12:41;;;;;;;5.97;3.00;;;;;;;;;;5016135;28;20076;-79
2023/04/29 08:15:07;;;;;;;6.70;4.85;;;;;;;;;;5017804;28;20022;-78
2023/04/29 08:17:33;;;;;;;6.05;3.30;;;;;;;;;;5017003;28;20026;-78
2023/04/29 08:19:59;;;;;;;10.05;4.85;;;;;;;;;;5016046;28;20373;-78
2023/04/29 08:22:25;;;;;;;6.97;3.58;;;;;;;;;;5017068;28;20049;-78
2023/04/29 08:24:51;;;;;;;5.95;2.70;;;;;;;;;;5016958;28;20014;-78
2023/04/29 08:27:17;;;;;;;8.07;3.63;;;;;;;;;;5015629;28;20026;-78
2023/04/29 08:29:43;;;;;;;8.73;3.67;;;;;;;;;;5015506;28;20116;-78
2023/04/29 08:32:09;;;;;;;5.63;3.75;;;;;;;;;;5014769;28;20457;-78
2023/04/29 08:34:36;;;;;;;6.70;4.07;;;;;;;;;;5014571;28;20029;-78
2023/04/29 08:37:02;;;;;;;7.70;3.83;;;;;;;;;;5014855;28;20099;-78
2023/04/29 08:39:30;;;;;;;6.88;4.05;;;;;;;;;;5015252;28;20026;-78
2023/04/29 08:41:56;;;;;;;6.47;3.95;;;;;;;;;;5016126;28;20369;-78
2023/04/29 08:44:22;;;;;;;7.63;4.45;;;;;;;;;;5015088;28;20021;-78
2023/04/29 08:46:49;;;;;;;9.63;3.88;;;;;;;;;;5017306;28;20037;-78
2023/04/29 08:49:15;;;;;;;5.15;3.40;;;;;;;;;;5017725;28;20373;-78
2023/04/29 08:51:41;;;;;;;7.07;4.60;;;;;;;;;;5016132;28;20030;-78
2023/04/29 08:54:07;;;;;;;6.78;4.20;;;;;;;;;;5031530;28;20472;-78
2023/04/29 08:56:33;;;;;;;10.63;3.72;;;;;;;;;;5035741;28;20033;-78
2023/04/29 08:59:01;;;;;;;10.55;4.15;;;;;;;;;;5035968;28;20025;-78
2023/04/29 09:01:28;;;;;;;8.55;3.72;;;;;;;;;;5028899;28;20041;-78
2023/04/29 09:04:12;;;;;;;5.82;3.40;;;;;;;;;;5018427;28;20440;-78
2023/04/29 09:06:38;;;;;;;9.13;4.28;;;;;;;;;;5015155;28;20026;-78
2023/04/29 09:09:04;;;;;;;6.00;3.42;;;;;;;;;;5034316;28;20083;-78
2023/04/29 09:11:30;;;;;;;9.23;4.22;;;;;;;;;;5018832;28;20026;-78
2023/04/29 09:14:00;;;;;;;9.20;4.25;;;;;;;;;;5019012;28;20041;-78
2023/04/29 09:16:26;;;;;;;7.18;4.63;;;;;;;;;;5050254;28;20025;-78
2023/04/29 09:18:54;;;;;;;6.85;3.30;;;;;;;;;;5035327;28;20021;-78
2023/04/29 09:21:27;;;;;;;8.68;3.17;;;;;;;;;;5017786;28;20052;-78
2023/04/29 09:23:54;;;;;;;6.95;3.80;;;;;;;;;;5036217;28;20468;-78
2023/04/29 09:26:21;;;;;;;5.93;2.72;;;;;;;;;;5035330;28;20471;-78
2023/04/29 09:28:48;;;;;;;3.92;2.60;;;;;;;;;;5042585;28;20017;-78
2023/04/29 09:31:17;;;;;;;2.05;1.45;;;;;;;;;;5041644;28;20053;-78
2023/04/29 09:33:57;;;;;;;4.82;2.80;;;;;;;;;;5040404;28;20184;-78
2023/04/29 09:36:45;;;;;;;5.13;3.25;;;;;;;;;;5025425;28;20049;-78
2023/04/29 09:39:15;;;;;;;3.95;2.50;;;;;;;;;;5016712;28;20124;-77
2023/04/29 09:41:50;;;;;;;2.28;2.03;;;;;;;;;;5032230;28;20034;-78
2023/04/29 09:44:16;;;;;;;16.15;13.27;;;;;;;;;;5018121;28;20063;-78
2023/04/29 09:46:42;;;;;;;4.63;1.88;;;;;;;;;;5036724;28;20029;-79
2023/04/29 09:49:24;;;;;;;5.43;2.58;;;;;;;;;;5034675;28;20022;-79
2023/04/29 09:51:54;;;;;;;4.78;2.00;;;;;;;;;;5020071;28;20112;-79
2023/04/29 09:54:24;;;;;;;6.57;1.73;;;;;;;;;;5018715;28;20527;-80
2023/04/29 09:56:50;;;;;;;;;;;;;;;;;;5019513;28;20033;-79
2023/04/29 09:59:17;;;;;;;5.55;2.75;;;;;;;;;;5014641;28;19905;-77
2023/04/29 10:01:43;;;;;;;3.28;2.45;;;;;;;;;;5014518;28;20113;-77
2023/04/29 10:04:11;;;;;;;6.80;2.25;;;;;;;;;;5031320;28;20025;-77
2023/04/29 10:06:40;;;;;;;5.22;1.85;;;;;;;;;;5014914;28;20396;-77
2023/04/29 10:09:08;;;;;;;4.60;2.60;;;;;;;;;;5014202;28;20515;-77
2023/04/29 10:11:35;;;;;;;4.70;2.97;;;;;;;;;;5013819;28;20033;-77
2023/04/29 10:14:02;;;;;;;6.72;2.47;;;;;;;;;;5033986;28;20156;-76
2023/04/29 10:16:29;;;;;;;2.92;2.10;;;;;;;;;;5033708;28;20152;-76
2023/04/29 10:18:56;;;;;;;5.55;2.70;;;;;;;;;;5015635;28;20021;-76
2023/04/29 10:21:31;;;;;;;4.45;2.30;;;;;;;;;;5033681;28;20380;-76
2023/04/29 10:23:58;;;;;;;4.43;2.10;;;;;;;;;;5033741;28;20032;-76
2023/04/29 10:26:31;;;;;;;9.13;2.50;;;;;;;;;;5033867;28;20480;-76
2023/04/29 10:28:58;;;;;;;6.85;2.50;;;;;;;;;;5033691;28;20060;-76
2023/04/29 10:31:28;;;;;;;4.00;2.22;;;;;;;;;;5033585;28;20026;-76
2023/04/29 10:33:55;;;;;;;;;;;;;;;;;;5034241;28;20014;-76
2023/04/29 10:36:33;;;;;;;2.15;1.58;;;;;;;;;;5032130;28;19923;-76
2023/04/29 10:39:02;;;;;;;4.18;1.55;;;;;;;;;;5033387;28;20029;-76
2023/04/29 10:41:34;;;;;;;8.15;2.42;;;;;;;;;;5033300;28;20040;-77
2023/04/29 10:44:00;;;;;;;2.97;1.88;;;;;;;;;;5034119;28;20025;-76
2023/04/29 10:46:26;;;;;;;2.47;1.60;;;;;;;;;;5034099;28;20053;-77
2023/04/29 10:49:02;;;;;;;3.00;1.67;;;;;;;;;;5034225;28;20064;-77
2023/04/29 10:51:30;;;;;;;2.25;1.55;;;;;;;;;;5034313;28;20029;-77
2023/04/29 10:54:00;;;;;;;4.80;2.38;;;;;;;;;;5033977;28;20026;-76
2023/04/29 10:56:43;;;;;;;4.95;1.58;;;;;;;;;;5033482;28;20025;-76
2023/04/29 10:59:10;;;;;;;2.22;1.58;;;;;;;;;;5033638;28;20021;-76
2023/04/29 11:01:43;;;;;;;5.65;2.08;;;;;;;;;;5033400;28;20079;-76
2023/04/29 11:04:10;;;;;;;3.80;1.60;;;;;;;;;;5033499;28;20025;-76
2023/04/29 11:06:36;;;;;;;2.67;1.75;;;;;;;;;;5015636;28;20071;-76
2023/04/29 11:09:03;;;;;;;2.83;1.60;;;;;;;;;;5033947;28;20053;-77
2023/04/29 11:11:42;;;;;;;3.03;1.48;;;;;;;;;;5015730;28;20026;-76
2023/04/29 11:14:26;;;;;;;4.13;1.40;;;;;;;;;;5033440;28;20021;-76
2023/04/29 11:16:53;;;;;;;5.38;1.60;;;;;;;;;;5033660;28;20108;-76
2023/04/29 11:19:19;;;;;;;4.18;1.27;;;;;;;;;;5033103;28;20026;-76
2023/04/29 11:21:46;;;;;;;3.20;1.10;;;;;;;;;;5032685;28;20030;-76
2023/04/29 11:24:14;;;;;;;1.77;1.33;;;;;;;;;;5032868;28;20099;-76
2023/04/29 11:26:40;;;;;;;5.57;1.75;;;;;;;;;;5032722;28;20479;-76
2023/04/29 11:29:10;;;;;;;1.90;1.05;;;;;;;;;;5015512;28;20018;-76
2023/04/29 11:31:38;;;;;;;4.63;1.23;;;;;;;;;;5032040;28;20032;-76
2023/04/29 11:34:05;;;;;;;4.97;1.50;;;;;;;;;;5015795;28;20032;-77
2023/04/29 11:36:32;;;;;;;3.75;1.50;;;;;;;;;;5011786;28;20053;-78
2023/04/29 11:39:00;;;;;;;3.90;2.00;;;;;;;;;;5013312;28;20026;-77
2023/04/29 11:41:26;;;;;;;3.25;1.70;;;;;;;;;;5012936;28;20041;-77
2023/04/29 11:44:00;;;;;;;3.45;1.35;;;;;;;;;;5012397;28;20088;-78
2023/04/29 11:46:27;;;;;;;2.92;1.88;;;;;;;;;;5014987;28;20021;-78
2023/04/29 11:48:53;;;;;;;3.17;1.70;;;;;;;;;;5018644;28;20034;-78
2023/04/29 11:51:19;;;;;;;4.65;2.15;;;;;;;;;;5015167;28;20072;-78
2023/04/29 11:53:46;;;;;;;3.17;2.35;;;;;;;;;;5013686;28;20026;-78
2023/04/29 11:56:12;;;;;;;3.83;1.77;;;;;;;;;;5012279;28;20028;-78
2023/04/29 11:58:38;;;;;;;4.18;1.75;;;;;;;;;;5013627;28;20431;-77
2023/04/29 12:04:07;;;;;;;2.00;1.55;;;;;;;;;;5013596;28;20034;-78
2023/04/29 12:06:33;;;;;;;2.88;1.70;;;;;;;;;;5013421;28;20033;-79
2023/04/29 12:09:00;;;;;;;4.53;1.95;;;;;;;;;;5012108;28;20022;-76
2023/04/29 12:11:27;;;;;;;0.40;0.40;;;;;;;;;;5012547;28;20018;-76
2023/04/29 12:13:53;;;;;;;4.30;1.35;;;;;;;;;;5011154;28;20014;-76
2023/04/29 12:16:20;;;;;;;7.13;1.48;;;;;;;;;;5012318;28;20080;-76
2023/04/29 12:18:46;;;;;;;4.00;1.58;;;;;;;;;;5012525;28;20058;-76
2023/04/29 12:21:12;;;;;;;2.08;0.98;;;;;;;;;;5012183;28;20041;-76
2023/04/29 12:23:40;;;;;;;1.55;1.17;;;;;;;;;;5012548;28;20025;-76
2023/04/29 12:26:06;;;;;;;2.53;1.10;;;;;;;;;;5012980;28;20030;-76
2023/04/29 12:28:33;;;;;;;3.88;1.50;;;;;;;;;;5013398;28;20040;-76
2023/04/29 12:31:00;;;;;;;2.85;1.50;;;;;;;;;;4992947;28;20023;-76
2023/04/29 12:33:27;;;;;;;1.73;1.00;;;;;;;;;;4991552;28;20537;-76
2023/04/29 12:35:57;;;;;;;1.80;1.08;;;;;;;;;;4998847;28;20070;-77
2023/04/29 12:38:25;;;;;;;;;;;;;;;;;;5018622;28;20102;-77
2023/04/29 12:40:52;;;;;;;2.13;0.80;;;;;;;;;;5032606;28;19920;-77
2023/04/29 12:43:19;;;;;;;1.83;1.08;;;;;;;;;;5035282;28;20404;-77
2023/04/29 12:45:45;;;;;;;2.55;0.93;;;;;;;;;;5036468;28;20464;-78
2023/04/29 12:48:12;;;;;;;1.23;0.90;;;;;;;;;;5035996;28;20415;-77
2023/04/29 12:50:39;;;;;;;1.48;0.82;;;;;;;;;;5036122;28;20531;-78
2023/04/29 12:53:06;;;;;;;2.80;1.10;;;;;;;;;;5035618;28;20105;-77
2023/04/29 12:55:33;;;;;;;3.40;1.75;;;;;;;;;;5035868;28;20048;-78
2023/04/29 12:58:00;;;;;;;2.13;1.15;;;;;;;;;;5027547;28;20049;-77
2023/04/29 13:00:26;;;;;;;1.38;1.15;;;;;;;;;;5020774;28;20026;-78
2023/04/29 13:02:52;;;;;;;2.38;1.50;;;;;;;;;;5039468;28;20057;-78
2023/04/29 13:05:18;;;;;;;2.72;1.55;;;;;;;;;;5035816;28;20017;-77
2023/04/29 13:07:44;;;;;;;2.67;1.50;;;;;;;;;;5035471;28;20620;-78
2023/04/29 13:10:11;;;;;;;3.03;2.08;;;;;;;;;;5035403;28;20026;-78
2023/04/29 13:12:38;;;;;;;2.58;1.10;;;;;;;;;;5035385;28;20037;-78
2023/04/29 13:15:04;;;;;;;3.60;1.35;;;;;;;;;;5035535;28;20033;-77
2023/04/29 13:17:31;;;;;;;2.70;1.20;;;;;;;;;;5035112;28;20029;-77
2023/04/29 13:19:57;;;;;;;3.33;1.50;;;;;;;;;;5035492;28;20368;-78
2023/04/29 13:22:23;;;;;;;2.45;1.23;;;;;;;;;;5035318;28;20033;-77
2023/04/29 13:24:49;;;;;;;1.67;1.10;;;;;;;;;;5034971;28;20028;-77
2023/04/29 13:27:15;;;;;;;2.60;1.77;;;;;;;;;;5035469;28;20589;-78
2023/04/29 13:29:41;;;;;;;2.08;1.35;;;;;;;;;;5034885;28;20022;-78
2023/04/29 13:32:07;;;;;;;2.22;1.45;;;;;;;;;;5035484;28;20040;-77
2023/04/29 13:34:33;;;;;;;1.80;1.10;;;;;;;;;;5036208;28;20025;-78
2023/04/29 13:37:00;;;;;;;3.28;1.63;;;;;;;;;;5014505;28;20600;-78
2023/04/29 13:39:26;;;;;;;3.85;1.30;;;;;;;;;;5016306;28;20361;-77
2023/04/29 13:41:52;;;;;;;2.47;1.45;;;;;;;;;;5025488;28;20480;-78
2023/04/29 13:44:18;;;;;;;2.83;1.08;;;;;;;;;;5027109;28;20045;-77
2023/04/29 13:46:45;;;;;;;1.30;1.20;;;;;;;;;;5028156;28;20030;-77
2023/04/29 13:49:11;;;;;;;2.83;1.23;;;;;;;;;;5019923;28;20021;-78
2023/04/29 13:51:37;;;;;;;1.13;0.88;;;;;;;;;;5035797;28;20368;-78
2023/04/29 13:54:03;;;;;;;2.13;1.40;;;;;;;;;;5017791;28;20036;-77
2023/04/29 13:56:29;;;;;;;1.38;1.17;;;;;;;;;;5017983;28;20417;-78
2023/04/29 13:58:55;;;;;;;1.30;1.20;;;;;;;;;;5035234;28;20040;-77
2023/04/29 14:01:22;;;;;;;1.85;1.15;;;;;;;;;;5034836;28;20033;-78
2023/04/29 14:03:48;;;;;;;2.97;1.35;;;;;;;;;;5028693;28;20022;-79
2023/04/29 14:06:15;;;;;;;3.83;1.67;;;;;;;;;;5014995;28;20108;-78
2023/04/29 14:08:41;;;;;;;3.03;2.30;;;;;;;;;;5029777;28;20026;-78
2023/04/29 14:11:07;;;;;;;4.80;2.80;;;;;;;;;;5034975;28;20033;-78
2023/04/29 14:13:33;;;;;;;1.85;1.27;;;;;;;;;;5035897;28;20080;-78
2023/04/29 14:16:00;;;;;;;1.65;1.55;;;;;;;;;;5034760;28;20097;-78
2023/04/29 14:18:28;;;;;;;3.60;2.17;;;;;;;;;;5034710;28;20029;-78
2023/04/29 14:20:55;;;;;;;2.33;1.52;;;;;;;;;;5016415;28;20412;-78
2023/04/29 14:23:21;;;;;;;5.05;2.08;;;;;;;;;;5014701;28;20025;-78
2023/04/29 14:25:53;;;;;;;3.90;2.75;;;;;;;;;;4997209;28;20357;-78
2023/04/29 14:28:19;;;;;;;2.50;1.58;;;;;;;;;;5032309;28;20040;-78
2023/04/29 14:30:45;;;;;;;6.15;2.85;;;;;;;;;;5029621;28;20018;-78
2023/04/29 14:33:11;;;;;;;4.65;2.63;;;;;;;;;;5014530;28;20473;-78
2023/04/29 14:35:37;;;;;;;3.97;2.53;;;;;;;;;;5020213;28;20046;-78
2023/04/29 14:38:03;;;;;;;5.65;3.10;;;;;;;;;;4996968;28;20179;-78
2023/04/29 14:40:29;;;;;;;5.00;2.83;;;;;;;;;;5014428;28;20018;-79
2023/04/29 14:42:55;;;;;;;6.68;3.53;;;;;;;;;;5013974;28;20038;-79
2023/04/29 14:45:21;;;;;;;6.63;3.20;;;;;;;;;;5015487;28;20083;-80
2023/04/29 14:47:47;;;;;;;5.70;3.40;;;;;;;;;;5022592;28;20030;-78